Time;durP1;ratioP1;P1;durP2;ratioP2;P2;SDS_P1;SDS_P2;PMS_P1;PMS_P2;Temp;Humidity;BMP_temperature;BMP_pressure;BME280_temperature;BME280_humidity;BME280_pressure;Samples;Min_cycle;Max_cycle;Signal;HPM_P1;HPM_P2
2021/10/29 00:01:09;;;;;;;15.45;11.57;;;;;;;7.97;66.20;95203.22;827788;71;29131;-76
2021/10/29 00:16:19;;;;;;;16.27;12.37;;;;;;;7.89;66.39;95182.27;826749;71;32670;-75
2021/10/29 00:31:10;;;;;;;17.35;11.95;;;;;;;7.80;66.39;95182.45;827682;71;28880;-76
2021/10/29 00:46:16;;;;;;;19.12;12.28;;;;;;;7.71;66.78;95178.23;826693;71;31754;-75
2021/10/29 01:01:14;;;;;;;17.02;12.55;;;;;;;7.62;67.43;95169.28;833300;71;31567;-78
2021/10/29 01:16:08;;;;;;;14.75;11.28;;;;;;;7.62;67.60;95143.17;827607;71;29179;-76
2021/10/29 01:31:10;;;;;;;15.98;12.45;;;;;;;7.55;67.62;95125.65;827823;71;29338;-77
2021/10/29 01:46:10;;;;;;;15.30;11.83;;;;;;;7.49;68.09;95139.19;827868;71;29174;-77
2021/10/29 02:01:09;;;;;;;17.87;11.55;;;;;;;7.45;68.15;95142.03;827498;71;29778;-76
2021/10/29 02:16:08;;;;;;;16.67;12.90;;;;;;;7.36;68.28;95145.64;829523;71;28510;-77
2021/10/29 02:31:09;;;;;;;16.82;11.50;;;;;;;7.25;68.48;95128.31;828178;71;29815;-78
2021/10/29 02:46:14;;;;;;;17.07;12.93;;;;;;;7.14;68.94;95122.77;827025;71;32366;-77
2021/10/29 03:16:08;;;;;;;19.62;15.30;;;;;;;6.89;69.98;95147.59;820118;71;29078;-79
2021/10/29 03:31:10;;;;;;;18.27;13.50;;;;;;;6.92;69.96;95145.03;819901;71;29674;-76
2021/10/29 03:46:15;;;;;;;19.60;14.20;;;;;;;6.82;69.95;95138.67;819744;71;30242;-79
2021/10/29 04:01:13;;;;;;;23.77;16.25;;;;;;;6.76;69.89;95138.36;828559;71;31697;-77
2021/10/29 04:16:15;;;;;;;19.85;15.15;;;;;;;6.68;70.33;95134.90;818602;71;32825;-78
2021/10/29 04:31:19;;;;;;;19.92;15.70;;;;;;;6.57;70.77;95129.33;819760;71;33329;-79
2021/10/29 04:46:12;;;;;;;22.55;15.48;;;;;;;6.49;70.81;95120.63;831882;71;32193;-79
2021/10/29 05:01:08;;;;;;;21.73;14.80;;;;;;;6.34;71.10;95125.95;825941;71;29911;-77
2021/10/29 05:16:17;;;;;;;28.42;18.85;;;;;;;6.23;72.02;95134.70;822899;71;32883;-77
2021/10/29 05:31:32;;;;;;;30.75;20.65;;;;;;;7.47;70.13;95149.62;797366;73;33559;-78
2021/10/29 05:46:16;;;;;;;31.70;21.52;;;;;;;11.26;61.11;95148.11;824355;71;33294;-76
2021/10/29 06:01:10;;;;;;;28.45;21.23;;;;;;;14.34;51.76;95159.17;827888;71;30280;-76
2021/10/29 06:16:10;;;;;;;26.95;21.57;;;;;;;16.49;45.89;95165.77;828695;71;30349;-76
2021/10/29 07:01:21;;;;;;;28.05;21.97;;;;;;;18.71;40.07;95159.13;828453;71;32681;-75
2021/10/29 07:46:11;;;;;;;27.73;23.50;;;;;;;21.99;36.29;95139.66;828518;71;30369;-79
2021/10/29 08:01:28;;;;;;;15.23;13.70;;;;;;;21.00;35.25;95147.88;833626;71;33250;-79
2021/10/29 08:16:31;;;;;;;15.93;13.85;;;;;;;18.35;39.49;95125.10;832952;71;32906;-77
2021/10/29 08:31:15;;;;;;;14.78;10.68;;;;;;;16.35;43.16;95130.91;819838;71;33478;-75
2021/10/29 09:46:19;;;;;;;11.57;10.45;;;;;;;14.31;48.12;95083.73;819468;71;32933;-76
2021/10/29 10:01:17;;;;;;;10.82;8.50;;;;;;;14.88;44.97;95049.77;819899;71;32815;-76
2021/10/29 10:16:12;;;;;;;9.90;8.95;;;;;;;15.52;42.72;95054.00;828618;71;30320;-77
2021/10/29 11:01:46;;;;;;;7.00;6.30;;;;;;;16.59;36.27;95019.75;827638;71;31106;-78
2021/10/29 11:16:27;;;;;;;7.28;6.00;;;;;;;16.96;35.28;94998.45;823515;71;29703;-77
2021/10/29 15:16:46;;;;;;;7.55;4.55;;;;;;;13.32;30.83;94923.77;819502;71;32949;-78
2021/10/29 15:47:02;;;;;;;5.85;4.47;;;;;;;12.73;32.00;94935.36;793986;69;33330;-78
2021/10/29 16:31:13;;;;;;;3.75;3.10;;;;;;;12.20;29.06;94958.84;828570;71;29733;-77
2021/10/29 16:46:09;;;;;;;5.35;4.35;;;;;;;12.08;30.78;94984.25;827581;71;30471;-77
2021/10/29 17:01:16;;;;;;;5.33;3.87;;;;;;;11.80;31.95;94982.77;827698;71;33207;-76
2021/10/29 17:16:16;;;;;;;4.85;4.35;;;;;;;11.33;35.25;94983.58;823766;71;33435;-77
2021/10/29 17:46:14;;;;;;;6.22;4.50;;;;;;;10.91;37.84;95007.36;827805;71;29735;-77
2021/10/29 18:01:12;;;;;;;4.65;4.20;;;;;;;10.74;39.62;95011.18;827828;71;31926;-76
2021/10/29 18:16:15;;;;;;;5.37;4.67;;;;;;;10.56;42.18;95013.16;833417;71;32751;-76
2021/10/29 18:31:15;;;;;;;8.08;5.25;;;;;;;10.39;44.52;95010.94;833016;71;32956;-77
2021/10/29 18:46:16;;;;;;;8.63;6.25;;;;;;;10.11;46.29;95017.64;823534;71;33519;-80
2021/10/29 19:01:29;;;;;;;7.85;5.50;;;;;;;9.96;46.75;95021.91;816479;71;32979;-78
2021/10/29 19:16:32;;;;;;;6.22;5.62;;;;;;;9.63;47.94;161190.53;817895;71;32744;-76
2021/10/29 19:31:09;;;;;;;6.55;5.78;;;;;;;9.39;49.66;95053.31;821038;71;29262;-78
2021/10/29 19:46:10;;;;;;;6.85;6.15;;;;;;;9.11;51.64;95058.06;828081;71;29767;-76
2021/10/29 20:01:13;;;;;;;6.03;5.35;;;;;;;9.06;52.35;95073.77;824761;71;29298;-77
2021/10/29 20:16:12;;;;;;;9.53;7.03;;;;;;;8.91;53.90;95069.33;827322;71;29496;-78
2021/10/29 20:31:12;;;;;;;7.62;6.10;;;;;;;8.72;55.65;95065.65;828789;71;28736;-76
2021/10/29 20:46:19;;;;;;;8.70;6.87;;;;;;;8.54;57.07;95080.05;827829;71;31795;-77
2021/10/29 21:16:16;;;;;;;10.00;7.65;;;;;;;8.42;60.24;95071.13;827927;71;31632;-78
2021/10/29 21:31:15;;;;;;;9.60;8.10;;;;;;;8.62;61.04;95056.77;827905;71;30397;-78
2021/10/29 21:46:15;;;;;;;11.55;7.95;;;;;;;8.22;62.38;95054.84;827700;71;31458;-75
2021/10/29 22:01:09;;;;;;;12.53;8.00;;;;;;;7.97;64.33;95055.58;827299;71;29782;-76
2021/10/29 22:16:14;;;;;;;12.88;8.78;;;;;;;7.81;65.13;95065.97;827358;71;29901;-75
2021/10/29 22:31:11;;;;;;;11.10;8.45;;;;;;;7.44;67.42;95059.54;827584;71;28499;-80
2021/10/29 22:46:10;;;;;;;12.82;9.30;;;;;;;7.36;69.39;95072.55;828088;71;28686;-77
2021/10/29 23:01:30;;;;;;;14.40;9.38;;;;;;;7.51;70.86;95077.58;832828;71;31799;-76
2021/10/29 23:16:11;;;;;;;15.88;11.12;;;;;;;7.48;71.84;95086.72;833479;71;28576;-75
2021/10/29 23:31:57;;;;;;;18.80;13.80;;;;;;;7.53;73.22;95086.72;827734;71;29304;-77
2021/10/29 23:46:14;;;;;;;18.37;14.10;;;;;;;7.47;74.32;95098.18;833329;71;30415;-76
